createdAt,value
2023-03-17T00:01:55.942Z,8.80
2023-03-17T00:04:25.415Z,8.80
2023-03-17T00:06:54.006Z,8.80
2023-03-17T00:09:22.947Z,8.80
2023-03-17T00:11:51.680Z,8.80
2023-03-17T00:14:20.657Z,8.80
2023-03-17T00:16:51.021Z,8.80
2023-03-17T00:19:27.529Z,8.80
2023-03-17T00:21:56.203Z,8.80
2023-03-17T00:24:24.625Z,8.80
2023-03-17T00:26:53.505Z,8.80
2023-03-17T00:29:21.862Z,8.80
2023-03-17T00:31:51.704Z,8.80
2023-03-17T00:34:25.391Z,8.80
2023-03-17T00:36:53.819Z,8.80
2023-03-17T00:39:25.399Z,8.80
2023-03-17T00:41:56.013Z,8.80
2023-03-17T00:44:24.329Z,8.80
2023-03-17T00:46:54.321Z,8.80
2023-03-17T00:49:26.288Z,8.80
2023-03-17T00:51:55.082Z,8.80
2023-03-17T00:54:23.591Z,8.80
2023-03-17T00:56:53.190Z,8.80
2023-03-17T00:59:26.460Z,8.80
2023-03-17T01:01:55.431Z,8.80
2023-03-17T01:04:25.461Z,8.80
2023-03-17T01:06:54.245Z,8.80
2023-03-17T01:09:26.348Z,8.80
2023-03-17T01:11:55.136Z,8.80
2023-03-17T01:14:24.907Z,8.80
2023-03-17T01:16:55.184Z,8.80
2023-03-17T01:19:25.621Z,8.80
2023-03-17T01:21:54.076Z,8.80
2023-03-17T01:24:22.488Z,8.80
2023-03-17T01:26:50.961Z,8.80
2023-03-17T01:29:19.313Z,8.80
2023-03-17T01:31:47.739Z,8.80
2023-03-17T01:34:16.539Z,8.80
2023-03-17T01:36:46.774Z,8.80
2023-03-17T01:39:16.151Z,8.70
2023-03-17T01:41:45.599Z,8.70
2023-03-17T01:44:17.101Z,8.70
2023-03-17T01:46:45.927Z,8.70
2023-03-17T01:49:21.074Z,8.70
2023-03-17T01:51:58.761Z,8.70
2023-03-17T01:54:34.915Z,8.70
2023-03-17T01:57:10.637Z,8.70
2023-03-17T01:59:45.448Z,8.70
2023-03-17T02:02:19.833Z,8.70
2023-03-17T02:04:48.374Z,8.70
2023-03-17T02:07:18.706Z,8.70
2023-03-17T02:09:47.323Z,8.70
2023-03-17T02:12:15.998Z,8.70
2023-03-17T02:14:45.245Z,8.70
2023-03-17T02:17:14.878Z,8.70
2023-03-17T02:19:44.090Z,8.70
2023-03-17T02:22:14.043Z,8.70
2023-03-17T02:24:49.780Z,8.70
2023-03-17T02:27:21.274Z,8.70
2023-03-17T02:29:50.857Z,8.70
2023-03-17T02:32:20.418Z,8.70
2023-03-17T02:34:49.837Z,8.70
2023-03-17T02:37:20.765Z,8.70
2023-03-17T02:39:49.307Z,8.60
2023-03-17T02:42:18.012Z,8.70
2023-03-17T02:44:46.654Z,8.70
2023-03-17T02:47:15.357Z,8.70
2023-03-17T02:49:44.844Z,8.70
2023-03-17T02:52:13.485Z,8.70
2023-03-17T02:54:43.292Z,8.70
2023-03-17T02:57:11.797Z,8.70
2023-03-17T02:59:40.295Z,8.70
2023-03-17T03:02:09.129Z,8.60
2023-03-17T03:04:37.622Z,8.60
2023-03-17T03:07:06.206Z,8.60
2023-03-17T03:09:36.364Z,8.60
2023-03-17T03:12:09.915Z,8.60
2023-03-17T03:14:38.650Z,8.60
2023-03-17T03:17:07.177Z,8.60
2023-03-17T03:19:35.570Z,8.60
2023-03-17T03:22:03.922Z,8.60
2023-03-17T03:24:32.488Z,8.60
2023-03-17T03:27:00.918Z,8.60
2023-03-17T03:29:30.750Z,8.60
2023-03-17T03:31:59.042Z,8.60
2023-03-17T03:34:27.922Z,8.60
2023-03-17T03:36:56.187Z,8.60
2023-03-17T03:39:24.731Z,8.60
2023-03-17T03:41:55.520Z,8.60
2023-03-17T03:44:23.869Z,8.60
2023-03-17T03:46:53.672Z,8.60
2023-03-17T03:49:22.706Z,8.60
2023-03-17T03:51:51.220Z,8.50
2023-03-17T03:54:19.562Z,8.60
2023-03-17T03:56:47.885Z,8.60
2023-03-17T03:59:16.321Z,8.60
2023-03-17T04:01:44.667Z,8.50
2023-03-17T04:04:14.383Z,8.50
2023-03-17T04:06:42.707Z,8.50
2023-03-17T04:09:11.267Z,8.50
2023-03-17T04:11:39.747Z,8.50
2023-03-17T04:14:08.584Z,8.50
2023-03-17T04:16:37.254Z,8.50
2023-03-17T04:19:05.750Z,8.50
2023-03-17T04:21:35.647Z,8.50
2023-03-17T04:24:05.170Z,8.50
2023-03-17T04:26:33.579Z,8.50
2023-03-17T04:29:01.970Z,8.50
2023-03-17T04:31:30.739Z,8.50
2023-03-17T04:33:59.079Z,8.50
2023-03-17T04:36:27.984Z,8.50
2023-03-17T04:38:57.845Z,8.50
2023-03-17T04:41:26.219Z,8.50
2023-03-17T04:43:54.492Z,8.50
2023-03-17T04:46:22.820Z,8.50
2023-03-17T04:48:51.143Z,8.50
2023-03-17T04:51:19.448Z,8.50
2023-03-17T04:53:47.738Z,8.40
2023-03-17T04:56:17.752Z,8.40
2023-03-17T04:58:46.517Z,8.40
2023-03-17T05:01:15.251Z,8.40
2023-03-17T05:03:43.860Z,8.40
2023-03-17T05:06:12.232Z,8.40
2023-03-17T05:08:40.626Z,8.40
2023-03-17T05:11:09.477Z,8.40
2023-03-17T05:13:40.999Z,8.40
2023-03-17T05:16:09.795Z,8.50
2023-03-17T05:18:38.820Z,8.50
2023-03-17T05:21:08.621Z,8.50
2023-03-17T05:23:37.279Z,8.50
2023-03-17T05:26:06.484Z,8.50
2023-03-17T05:28:34.912Z,8.50
2023-03-17T05:31:05.486Z,8.40
2023-03-17T05:33:33.934Z,8.40
2023-03-17T05:36:02.482Z,8.50
2023-03-17T05:38:30.923Z,8.40
2023-03-17T05:40:59.282Z,8.40
2023-03-17T05:43:27.730Z,8.40
2023-03-17T05:45:56.114Z,8.50
2023-03-17T05:48:26.512Z,8.40
2023-03-17T05:50:54.863Z,8.40
2023-03-17T05:53:23.592Z,8.40
2023-03-17T05:55:52.442Z,8.40
2023-03-17T05:58:21.097Z,8.40
2023-03-17T06:00:49.414Z,8.40
2023-03-17T06:03:17.934Z,8.40
2023-03-17T06:05:47.701Z,8.40
2023-03-17T06:08:16.105Z,8.40
2023-03-17T06:10:44.731Z,8.40
2023-03-17T06:13:13.031Z,8.40
2023-03-17T06:15:42.225Z,8.40
2023-03-17T06:18:10.739Z,8.40
2023-03-17T06:20:39.086Z,8.40
2023-03-17T06:23:08.806Z,8.40
2023-03-17T06:25:37.448Z,8.40
2023-03-17T06:28:06.557Z,8.40
2023-03-17T06:30:37.531Z,8.40
2023-03-17T06:33:07.182Z,8.40
2023-03-17T06:35:36.186Z,8.40
2023-03-17T06:38:05.051Z,8.40
2023-03-17T06:40:35.025Z,8.40
2023-03-17T06:43:04.142Z,8.40
2023-03-17T06:45:33.879Z,8.40
2023-03-17T06:48:02.498Z,8.40
2023-03-17T06:50:30.896Z,8.40
2023-03-17T06:52:59.352Z,8.40
2023-03-17T06:55:28.833Z,8.40
2023-03-17T06:57:58.969Z,8.40
2023-03-17T07:00:28.396Z,8.40
2023-03-17T07:02:56.832Z,8.40
2023-03-17T07:05:25.288Z,8.40
2023-03-17T07:07:53.650Z,8.40
2023-03-17T07:10:23.164Z,8.50
2023-03-17T07:12:51.559Z,8.40
2023-03-17T07:15:22.054Z,8.40
2023-03-17T07:17:50.370Z,8.40
2023-03-17T07:20:18.900Z,8.40
2023-03-17T07:22:47.234Z,8.40
2023-03-17T07:25:15.779Z,8.40
2023-03-17T07:27:44.318Z,8.40
2023-03-17T07:30:15.019Z,8.40
2023-03-17T07:32:44.763Z,8.40
2023-03-17T07:35:13.324Z,8.40
2023-03-17T07:37:41.711Z,8.40
2023-03-17T07:40:11.574Z,8.40
2023-03-17T07:42:39.881Z,8.40
2023-03-17T07:45:10.088Z,8.50
2023-03-17T07:47:39.319Z,8.50
2023-03-17T07:50:10.881Z,8.50
2023-03-17T07:52:39.216Z,8.50
2023-03-17T07:55:10.643Z,8.50
2023-03-17T07:57:39.211Z,8.50
2023-03-17T08:00:10.341Z,8.50
2023-03-17T08:02:41.641Z,8.50
2023-03-17T08:05:11.978Z,8.50
2023-03-17T08:07:40.623Z,8.50
2023-03-17T08:10:11.773Z,8.50
2023-03-17T08:12:40.808Z,8.50
2023-03-17T08:15:10.386Z,8.50
2023-03-17T08:17:39.755Z,8.50
2023-03-17T08:20:10.026Z,8.50
2023-03-17T08:22:39.872Z,8.50
2023-03-17T08:25:09.719Z,8.50
2023-03-17T08:27:38.305Z,8.50
2023-03-17T08:30:07.909Z,8.50
2023-03-17T08:32:36.631Z,8.50
2023-03-17T08:35:06.403Z,8.50
2023-03-17T08:37:34.975Z,8.50
2023-03-17T08:40:06.395Z,8.50
2023-03-17T08:42:34.728Z,8.50
2023-03-17T08:45:03.183Z,8.50
2023-03-17T08:47:31.806Z,8.50
2023-03-17T08:50:00.648Z,8.50
2023-03-17T08:52:29.561Z,8.50
2023-03-17T08:54:58.035Z,8.50
2023-03-17T08:57:28.228Z,8.50
2023-03-17T08:59:56.949Z,8.60
2023-03-17T09:02:25.341Z,8.50
2023-03-17T09:04:54.256Z,8.50
2023-03-17T09:07:22.589Z,8.50
2023-03-17T09:09:50.949Z,8.50
2023-03-17T09:12:19.313Z,8.50
2023-03-17T09:14:49.412Z,8.50
2023-03-17T09:17:18.042Z,8.50
2023-03-17T09:19:46.989Z,8.50
2023-03-17T09:22:16.785Z,8.50
2023-03-17T09:24:46.178Z,8.50
2023-03-17T09:27:14.748Z,8.50
2023-03-17T09:29:43.311Z,8.50
2023-03-17T09:32:13.085Z,8.50
2023-03-17T09:34:42.029Z,8.50
2023-03-17T09:37:10.994Z,8.50
2023-03-17T09:39:39.514Z,8.60
2023-03-17T09:42:21.462Z,8.60
2023-03-17T09:45:02.884Z,8.60
2023-03-17T09:48:15.992Z,8.60
2023-03-17T09:50:50.469Z,8.70
2023-03-17T09:53:22.598Z,8.70
2023-03-17T09:55:56.676Z,8.70
2023-03-17T09:58:31.985Z,8.70
2023-03-17T10:01:01.972Z,8.70
2023-03-17T10:03:30.919Z,8.60
2023-03-17T10:06:16.693Z,8.60
2023-03-17T10:08:52.403Z,8.60
2023-03-17T10:11:30.148Z,8.60
2023-03-17T10:14:04.596Z,8.60
2023-03-17T10:16:42.600Z,8.60
2023-03-17T10:19:22.641Z,8.60
2023-03-17T10:21:58.897Z,8.60
2023-03-17T10:24:30.942Z,8.60
2023-03-17T10:27:02.949Z,8.60
2023-03-17T10:29:31.947Z,8.60
2023-03-17T10:32:00.685Z,8.60
2023-03-17T10:34:32.214Z,8.60
2023-03-17T10:37:06.787Z,8.60
2023-03-17T10:39:44.929Z,8.60
2023-03-17T10:42:20.861Z,8.60
2023-03-17T10:44:54.040Z,8.60
2023-03-17T10:47:31.797Z,8.60
2023-03-17T10:50:04.223Z,8.70
2023-03-17T10:52:40.759Z,8.70
2023-03-17T10:55:14.357Z,8.70
2023-03-17T10:57:52.805Z,8.70
2023-03-17T11:00:23.452Z,8.70
2023-03-17T11:02:57.398Z,8.70
2023-03-17T11:05:27.769Z,8.70
2023-03-17T11:08:08.359Z,8.70
2023-03-17T11:10:38.967Z,8.70
2023-03-17T11:13:08.289Z,8.70
2023-03-17T11:15:39.666Z,8.70
2023-03-17T11:18:16.865Z,8.70
2023-03-17T11:20:49.547Z,8.70
2023-03-17T11:23:47.120Z,8.70
2023-03-17T11:26:32.450Z,8.70
2023-03-17T11:29:21.272Z,8.80
2023-03-17T11:31:58.902Z,8.70
2023-03-17T11:34:41.503Z,8.70
2023-03-17T11:37:24.504Z,8.80
2023-03-17T11:40:01.151Z,8.80
2023-03-17T11:42:37.815Z,8.80
2023-03-17T11:45:21.124Z,8.80
2023-03-17T11:48:06.195Z,8.80
2023-03-17T11:50:41.907Z,8.80
2023-03-17T11:53:23.363Z,8.80
2023-03-17T11:55:57.959Z,8.80
2023-03-17T11:58:33.594Z,8.80
2023-03-17T12:01:03.284Z,8.80
2023-03-17T12:03:38.473Z,8.80
2023-03-17T12:06:14.154Z,8.80
2023-03-17T12:08:46.604Z,8.80
2023-03-17T12:11:22.045Z,8.80
2023-03-17T12:13:55.150Z,8.80
2023-03-17T12:16:33.134Z,8.80
2023-03-17T12:19:08.525Z,8.80
2023-03-17T12:21:42.133Z,8.80
2023-03-17T12:24:15.021Z,8.80
2023-03-17T12:26:52.339Z,8.80
2023-03-17T12:29:29.596Z,8.90
2023-03-17T12:32:06.291Z,8.90
2023-03-17T12:34:44.694Z,9.00
2023-03-17T12:37:14.285Z,9.10
2023-03-17T12:39:50.271Z,9.20
2023-03-17T12:42:33.679Z,9.30
2023-03-17T12:45:27.507Z,9.40
2023-03-17T12:48:08.254Z,9.40
2023-03-17T12:51:06.319Z,9.50
2023-03-17T12:53:37.739Z,9.50
2023-03-17T12:56:15.416Z,9.50
2023-03-17T12:58:49.460Z,9.60
2023-03-17T13:01:30.085Z,9.60
2023-03-17T13:04:03.624Z,9.60
2023-03-17T13:06:36.223Z,9.70
2023-03-17T13:09:37.326Z,9.70
2023-03-17T13:12:08.802Z,9.70
2023-03-17T13:14:44.604Z,9.70
2023-03-17T13:17:35.060Z,9.80
2023-03-17T13:20:17.273Z,9.80
2023-03-17T13:23:04.709Z,9.80
2023-03-17T13:25:35.672Z,9.90
2023-03-17T13:28:25.067Z,9.90
2023-03-17T13:31:16.206Z,9.90
2023-03-17T13:33:47.561Z,9.90
2023-03-17T13:36:29.562Z,9.90
2023-03-17T13:39:46.327Z,9.90
2023-03-17T13:42:36.869Z,10.00
2023-03-17T13:45:22.661Z,10.00
2023-03-17T13:47:53.485Z,10.00
2023-03-17T13:50:25.545Z,10.00
2023-03-17T13:52:57.893Z,10.10
2023-03-17T13:55:41.507Z,10.10
2023-03-17T13:58:35.239Z,10.10
2023-03-17T14:01:10.390Z,10.20
2023-03-17T14:03:47.432Z,10.20
2023-03-17T14:06:17.363Z,10.20
2023-03-17T14:08:48.994Z,10.20
2023-03-17T14:11:29.389Z,10.30
2023-03-17T14:14:15.138Z,10.30
2023-03-17T14:16:58.848Z,10.30
2023-03-17T14:19:32.273Z,10.30
2023-03-17T14:22:06.262Z,10.40
2023-03-17T14:24:35.825Z,10.40
2023-03-17T14:27:08.553Z,10.40
2023-03-17T14:29:38.179Z,10.40
2023-03-17T14:32:08.745Z,10.40
2023-03-17T14:34:43.979Z,10.40
2023-03-17T14:37:13.047Z,10.50
2023-03-17T14:39:46.799Z,10.40
2023-03-17T14:42:15.503Z,10.50
2023-03-17T14:44:45.144Z,10.50
2023-03-17T14:47:19.212Z,10.50
2023-03-17T14:49:50.112Z,10.50
2023-03-17T14:52:22.821Z,10.50
2023-03-17T14:54:53.724Z,10.50
2023-03-17T14:57:27.007Z,10.50
2023-03-17T15:00:00.418Z,10.50
2023-03-17T15:02:35.406Z,10.50
2023-03-17T15:05:14.017Z,10.50
2023-03-17T15:07:43.838Z,10.50
2023-03-17T15:10:17.084Z,10.50
2023-03-17T15:12:47.356Z,10.50
2023-03-17T15:15:24.128Z,10.50
2023-03-17T15:17:55.563Z,10.50
2023-03-17T15:20:26.403Z,10.50
2023-03-17T15:22:59.620Z,10.50
2023-03-17T15:25:35.710Z,10.50
2023-03-17T15:28:08.929Z,10.50
2023-03-17T15:30:46.740Z,10.50
2023-03-17T15:33:22.316Z,10.50
2023-03-17T15:35:52.386Z,10.50
2023-03-17T15:38:21.596Z,10.50
2023-03-17T15:40:50.230Z,10.50
2023-03-17T15:43:21.696Z,10.50
2023-03-17T15:45:55.472Z,10.50
2023-03-17T15:48:26.428Z,10.50
2023-03-17T15:50:57.757Z,10.50
2023-03-17T15:53:26.126Z,10.50
2023-03-17T15:55:54.564Z,10.40
2023-03-17T15:58:22.974Z,10.40
2023-03-17T16:00:54.808Z,10.40
2023-03-17T16:03:29.209Z,10.40
2023-03-17T16:05:59.702Z,10.40
2023-03-17T16:08:28.932Z,10.40
2023-03-17T16:10:57.560Z,10.40
2023-03-17T16:13:25.955Z,10.40
2023-03-17T16:15:56.371Z,10.40
2023-03-17T16:18:32.085Z,10.30
2023-03-17T16:21:02.877Z,10.30
2023-03-17T16:23:35.397Z,10.30
2023-03-17T16:26:14.833Z,10.30
2023-03-17T16:28:46.402Z,10.20
2023-03-17T16:31:21.841Z,10.20
2023-03-17T16:33:50.670Z,10.20
2023-03-17T16:36:22.162Z,10.20
2023-03-17T16:38:51.166Z,10.10
2023-03-17T16:41:21.808Z,10.10
2023-03-17T16:43:53.714Z,10.20
2023-03-17T16:46:23.118Z,10.10
2023-03-17T16:48:52.264Z,10.10
2023-03-17T16:51:22.099Z,10.10
2023-03-17T16:53:50.790Z,10.10
2023-03-17T16:56:21.987Z,10.10
2023-03-17T16:58:50.480Z,10.10
2023-03-17T17:01:21.912Z,10.10
2023-03-17T17:03:51.135Z,10.10
2023-03-17T17:06:22.493Z,10.10
2023-03-17T17:08:52.175Z,10.10
2023-03-17T17:11:21.421Z,10.00
2023-03-17T17:13:51.755Z,10.00
2023-03-17T17:16:24.454Z,10.00
2023-03-17T17:18:52.866Z,10.10
2023-03-17T17:21:22.968Z,10.00
2023-03-17T17:23:53.123Z,10.00
2023-03-17T17:26:22.045Z,10.00
2023-03-17T17:28:50.810Z,10.00
2023-03-17T17:31:19.450Z,10.00
2023-03-17T17:33:47.783Z,10.10
2023-03-17T17:36:18.088Z,10.00
2023-03-17T17:38:47.878Z,10.00
2023-03-17T17:41:17.080Z,10.00
2023-03-17T17:43:47.229Z,10.00
2023-03-17T17:46:18.734Z,10.00
2023-03-17T17:48:47.311Z,10.00
2023-03-17T17:51:15.857Z,10.00
2023-03-17T17:53:44.282Z,10.10
2023-03-17T17:56:16.797Z,10.10
2023-03-17T17:58:46.004Z,10.10
2023-03-17T18:01:19.652Z,10.10
2023-03-17T18:03:48.087Z,10.10
2023-03-17T18:06:17.934Z,10.10
2023-03-17T18:08:46.411Z,10.10
2023-03-17T18:11:16.083Z,10.10
2023-03-17T18:13:44.440Z,10.10
2023-03-17T18:16:19.607Z,10.10
2023-03-17T18:18:47.972Z,10.10
2023-03-17T18:21:16.695Z,10.10
2023-03-17T18:23:47.310Z,10.10
2023-03-17T18:26:20.211Z,10.10
2023-03-17T18:28:49.069Z,10.10
2023-03-17T18:31:19.953Z,10.10
2023-03-17T18:33:50.215Z,10.10
2023-03-17T18:36:18.914Z,10.10
2023-03-17T18:38:47.320Z,10.10
2023-03-17T18:41:17.741Z,10.10
2023-03-17T18:43:48.478Z,10.10
2023-03-17T18:46:17.283Z,10.10
2023-03-17T18:48:45.671Z,10.10
2023-03-17T18:51:14.070Z,10.10
2023-03-17T18:53:42.406Z,10.10
2023-03-17T18:56:10.906Z,10.10
2023-03-17T18:58:40.998Z,10.10
2023-03-17T19:01:09.587Z,10.10
2023-03-17T19:03:38.090Z,10.10
2023-03-17T19:06:11.951Z,10.10
2023-03-17T19:08:40.325Z,10.10
2023-03-17T19:11:09.339Z,10.10
2023-03-17T19:13:38.705Z,10.10
2023-03-17T19:16:10.452Z,10.10
2023-03-17T19:18:41.875Z,10.20
2023-03-17T19:21:11.512Z,10.20
2023-03-17T19:23:41.321Z,10.10
2023-03-17T19:26:10.452Z,10.20
2023-03-17T19:28:38.849Z,10.10
2023-03-17T19:31:09.363Z,10.20
2023-03-17T19:33:38.197Z,10.20
2023-03-17T19:36:09.113Z,10.20
2023-03-17T19:38:37.718Z,10.20
2023-03-17T19:41:06.772Z,10.20
2023-03-17T19:43:40.782Z,10.20
2023-03-17T19:46:12.070Z,10.20
2023-03-17T19:48:41.968Z,10.20
2023-03-17T19:51:10.414Z,10.20
2023-03-17T19:53:38.798Z,10.20
2023-03-17T19:56:08.202Z,10.20
2023-03-17T19:58:39.605Z,10.20
2023-03-17T20:01:09.494Z,10.20
2023-03-17T20:03:42.429Z,10.20
2023-03-17T20:06:11.230Z,10.20
2023-03-17T20:08:40.960Z,10.20
2023-03-17T20:11:09.422Z,10.20
2023-03-17T20:13:38.498Z,10.20
2023-03-17T20:16:08.203Z,10.20
2023-03-17T20:18:38.329Z,10.20
2023-03-17T20:21:07.842Z,10.20
2023-03-17T20:23:37.782Z,10.30
2023-03-17T20:26:06.966Z,10.30
2023-03-17T20:28:36.422Z,10.30
2023-03-17T20:31:05.379Z,10.30
2023-03-17T20:33:34.432Z,10.30
2023-03-17T20:36:04.815Z,10.30
2023-03-17T20:38:36.933Z,10.30
2023-03-17T20:41:11.041Z,10.30
2023-03-17T20:43:39.553Z,10.30
2023-03-17T20:46:09.362Z,10.30
2023-03-17T20:48:38.215Z,10.30
2023-03-17T20:51:10.104Z,10.30
2023-03-17T20:53:38.899Z,10.30
2023-03-17T20:56:08.583Z,10.30
2023-03-17T20:58:37.009Z,10.30
2023-03-17T21:01:05.579Z,10.30
2023-03-17T21:03:33.931Z,10.30
2023-03-17T21:06:02.231Z,10.30
2023-03-17T21:08:31.930Z,10.30
2023-03-17T21:11:00.242Z,10.30
2023-03-17T21:13:28.847Z,10.30
2023-03-17T21:15:57.264Z,10.30
2023-03-17T21:18:25.670Z,10.30
2023-03-17T21:20:54.384Z,10.30
2023-03-17T21:23:22.964Z,10.30
2023-03-17T21:25:56.738Z,10.30
2023-03-17T21:28:25.093Z,10.30
2023-03-17T21:30:53.669Z,10.30
2023-03-17T21:33:22.077Z,10.30
2023-03-17T21:35:50.470Z,10.30
2023-03-17T21:38:18.836Z,10.30
2023-03-17T21:40:47.534Z,10.30
2023-03-17T21:43:17.242Z,10.30
2023-03-17T21:45:46.003Z,10.30
2023-03-17T21:48:14.385Z,10.30
2023-03-17T21:50:43.194Z,10.30
2023-03-17T21:53:13.890Z,10.30
2023-03-17T21:55:42.871Z,10.30
2023-03-17T21:58:11.679Z,10.40
2023-03-17T22:00:45.412Z,10.30
2023-03-17T22:03:14.533Z,10.40
2023-03-17T22:05:42.894Z,10.30
2023-03-17T22:08:11.288Z,10.30
2023-03-17T22:10:40.833Z,10.30
2023-03-17T22:13:09.161Z,10.30
2023-03-17T22:15:37.643Z,10.40
2023-03-17T22:18:07.578Z,10.40
2023-03-17T22:20:35.998Z,10.30
2023-03-17T22:23:04.556Z,10.40
2023-03-17T22:25:32.854Z,10.40
2023-03-17T22:28:01.230Z,10.40
2023-03-17T22:30:29.656Z,10.40
2023-03-17T22:32:58.171Z,10.40
2023-03-17T22:35:28.329Z,10.40
2023-03-17T22:37:56.786Z,10.40
2023-03-17T22:40:25.132Z,10.40
2023-03-17T22:42:56.605Z,10.40
2023-03-17T22:45:24.941Z,10.40
2023-03-17T22:47:55.545Z,10.40
2023-03-17T22:50:24.778Z,10.40
2023-03-17T22:52:54.532Z,10.40
2023-03-17T22:55:23.316Z,10.40
2023-03-17T22:57:51.754Z,10.40
2023-03-17T23:00:20.386Z,10.40
2023-03-17T23:02:48.777Z,10.40
2023-03-17T23:05:17.184Z,10.40
2023-03-17T23:07:50.690Z,10.40
2023-03-17T23:10:24.481Z,10.40
2023-03-17T23:12:52.850Z,10.40
2023-03-17T23:15:21.425Z,10.40
2023-03-17T23:17:49.930Z,10.40
2023-03-17T23:20:19.006Z,10.40
2023-03-17T23:22:47.714Z,10.40
2023-03-17T23:25:16.265Z,10.40
2023-03-17T23:27:46.820Z,10.40
2023-03-17T23:30:17.922Z,10.40
2023-03-17T23:32:46.706Z,10.40
2023-03-17T23:35:15.430Z,10.40
2023-03-17T23:37:43.820Z,10.40
2023-03-17T23:40:15.525Z,10.40
2023-03-17T23:42:46.015Z,10.40
2023-03-17T23:45:15.325Z,10.40
2023-03-17T23:47:44.252Z,10.40
2023-03-17T23:50:14.494Z,10.40
2023-03-17T23:52:43.488Z,10.40
2023-03-17T23:55:12.862Z,10.40
2023-03-17T23:57:41.535Z,10.40
